Time;durP1;ratioP1;P1;durP2;ratioP2;P2;SDS_P1;SDS_P2;PMS_P1;PMS_P2;Temp;Humidity;BMP_temperature;BMP_pressure;BME280_temperature;BME280_humidity;BME280_pressure;Samples;Min_cycle;Max_cycle;Signal;HPM_P1;HPM_P2
2022/11/30 00:00:21;;;;;;;7.80;6.47;;;;;;;3.35;100.00;93080.16;2128698;27;20066;-77
2022/11/30 00:01:23;;;;;;;9.98;7.13;;;;;;;3.29;100.00;93081.63;2123178;27;20069;-77
2022/11/30 00:02:24;;;;;;;9.63;6.80;;;;;;;3.32;100.00;93075.59;2120969;27;20116;-77
2022/11/30 00:03:25;;;;;;;8.40;7.18;;;;;;;3.30;100.00;93077.88;2131460;27;20096;-77
2022/11/30 00:04:26;;;;;;;9.18;7.07;;;;;;;3.19;100.00;93079.69;2140088;27;20130;-78
2022/11/30 00:05:27;;;;;;;8.65;7.07;;;;;;;3.19;100.00;93079.69;2140577;27;20441;-78
2022/11/30 00:06:28;;;;;;;10.55;7.65;;;;;;;3.14;100.00;93080.78;2136343;27;20126;-77
2022/11/30 00:07:29;;;;;;;10.80;7.40;;;;;;;3.10;100.00;93073.97;2122411;27;20122;-77
2022/11/30 00:08:30;;;;;;;8.45;7.50;;;;;;;3.21;100.00;93074.81;2122331;27;20027;-77
2022/11/30 00:09:31;;;;;;;8.98;7.25;;;;;;;3.27;100.00;93073.31;2122061;27;20019;-78
2022/11/30 00:10:32;;;;;;;11.38;7.18;;;;;;;3.22;100.00;93078.97;2122685;27;20059;-77
2022/11/30 00:11:33;;;;;;;7.80;7.03;;;;;;;3.24;100.00;93079.34;2131719;27;20030;-77
2022/11/30 00:12:34;;;;;;;8.90;7.13;;;;;;;3.30;100.00;93072.59;2131884;27;20026;-77
2022/11/30 00:13:35;;;;;;;8.63;7.00;;;;;;;3.26;100.00;93082.38;2130695;27;20022;-77
2022/11/30 00:14:36;;;;;;;8.05;7.25;;;;;;;3.19;100.00;93074.41;2130743;27;20037;-77
2022/11/30 00:15:37;;;;;;;10.35;7.10;;;;;;;3.18;100.00;93076.28;2131155;27;20031;-77
2022/11/30 00:16:38;;;;;;;12.85;7.05;;;;;;;3.18;100.00;93076.28;2131027;27;20018;-78
2022/11/30 00:17:40;;;;;;;11.38;7.28;;;;;;;3.15;100.00;93073.63;2122662;27;20102;-77
2022/11/30 00:18:41;;;;;;;9.35;7.00;;;;;;;3.15;100.00;93073.63;2122536;27;20397;-77
2022/11/30 00:19:42;;;;;;;9.10;7.40;;;;;;;3.15;100.00;93071.75;2130896;27;20054;-77
2022/11/30 00:20:43;;;;;;;13.82;7.30;;;;;;;3.09;100.00;93080.41;2139907;27;20021;-77
2022/11/30 00:21:44;;;;;;;9.63;8.05;;;;;;;3.06;100.00;93076.59;2130769;27;20027;-76
2022/11/30 00:22:45;;;;;;;14.23;8.45;;;;;;;3.05;100.00;93076.97;2131437;27;20371;-78
2022/11/30 00:23:47;;;;;;;13.32;7.93;;;;;;;3.12;100.00;93069.09;2132028;27;20037;-77
2022/11/30 00:24:48;;;;;;;8.93;7.90;;;;;;;3.16;100.00;93069.84;2131675;27;20448;-77
2022/11/30 00:25:49;;;;;;;13.60;8.15;;;;;;;3.11;100.00;93076.25;2122541;27;20129;-78
2022/11/30 00:26:50;;;;;;;10.27;7.95;;;;;;;3.11;100.00;93070.22;2121978;27;20023;-78
2022/11/30 00:27:51;;;;;;;8.77;7.50;;;;;;;3.07;100.00;93075.47;2131031;27;20027;-77
2022/11/30 00:28:52;;;;;;;8.98;8.07;;;;;;;3.05;100.00;93072.44;2131614;27;20022;-79
2022/11/30 00:29:54;;;;;;;8.15;7.00;;;;;;;2.98;100.00;93064.47;2131578;27;20031;-78
2022/11/30 00:31:06;;;;;;;8.70;7.07;;;;;;;3.10;100.00;93080.03;2131610;27;20037;-77
2022/11/30 00:32:07;;;;;;;7.60;6.85;;;;;;;3.39;100.00;93072.25;2131241;27;20052;-77
2022/11/30 00:33:08;;;;;;;7.32;6.63;;;;;;;3.25;100.00;93076.34;2131202;27;20042;-78
2022/11/30 00:34:09;;;;;;;10.25;7.43;;;;;;;3.25;100.00;93073.69;2131757;27;20410;-79
2022/11/30 00:35:10;;;;;;;11.48;7.03;;;;;;;3.26;100.00;93071.81;2138751;27;20026;-76
2022/11/30 00:36:17;;;;;;;9.38;7.20;;;;;;;3.18;100.00;93067.63;2135707;27;20037;-78
2022/11/30 00:37:18;;;;;;;7.70;6.90;;;;;;;3.15;100.00;93073.63;2123302;27;20469;-77
2022/11/30 00:38:19;;;;;;;7.88;6.38;;;;;;;3.11;100.00;93078.13;2131708;27;20023;-78
2022/11/30 00:39:20;;;;;;;7.15;6.07;;;;;;;3.22;100.00;93079.72;2139710;27;20041;-77
2022/11/30 00:40:21;;;;;;;6.57;5.57;;;;;;;3.09;100.00;93077.75;2121835;27;20113;-76
2022/11/30 00:41:22;;;;;;;6.65;5.70;;;;;;;3.06;100.00;93071.31;2122715;27;20030;-76
2022/11/30 00:42:23;;;;;;;5.82;5.13;;;;;;;3.19;100.00;93066.47;2142210;27;20574;-77
2022/11/30 00:43:24;;;;;;;6.13;5.53;;;;;;;3.18;100.00;93073.66;2142527;27;20037;-76
2022/11/30 00:44:25;;;;;;;4.72;4.22;;;;;;;3.13;100.00;93070.63;2132664;27;20061;-77
2022/11/30 00:45:26;;;;;;;5.53;4.80;;;;;;;3.09;100.00;93072.47;2131747;27;20022;-78
2022/11/30 00:46:27;;;;;;;6.43;5.22;;;;;;;3.07;100.00;93064.16;2131627;27;20023;-77
2022/11/30 00:47:28;;;;;;;6.55;5.13;;;;;;;3.06;100.00;93067.91;2131694;27;20057;-77
2022/11/30 00:48:28;;;;;;;5.63;4.43;;;;;;;2.95;100.00;93071.25;2131676;27;20026;-78
2022/11/30 00:49:29;;;;;;;4.47;4.05;;;;;;;2.91;100.00;93073.13;2131122;27;20033;-78
2022/11/30 00:50:31;;;;;;;4.57;4.18;;;;;;;2.98;100.00;93077.69;2131232;27;20425;-77
2022/11/30 00:51:32;;;;;;;5.00;4.55;;;;;;;3.06;100.00;93073.97;2131108;27;20034;-77
2022/11/30 00:52:33;;;;;;;5.05;3.58;;;;;;;2.97;100.00;93073.53;2131369;27;20030;-77
2022/11/30 00:53:33;;;;;;;5.35;3.78;;;;;;;2.94;100.00;93074.25;2131609;27;20464;-76
2022/11/30 00:54:34;;;;;;;5.45;4.70;;;;;;;2.97;100.00;93070.88;2127882;27;20042;-78
2022/11/30 00:55:35;;;;;;;4.45;3.92;;;;;;;2.91;100.00;93081.03;2130931;27;20030;-77
2022/11/30 00:56:36;;;;;;;3.85;3.17;;;;;;;2.89;100.00;93075.34;2129870;27;20027;-76
2022/11/30 00:57:37;;;;;;;3.83;3.30;;;;;;;2.87;100.00;93082.16;2130087;27;20027;-76
2022/11/30 00:58:39;;;;;;;4.10;3.03;;;;;;;2.92;100.00;93079.91;2139459;27;20097;-76
2022/11/30 00:59:40;;;;;;;4.40;3.65;;;;;;;2.92;100.00;93076.53;2134138;27;20377;-77
2022/11/30 01:00:42;;;;;;;5.00;3.28;;;;;;;2.97;100.00;93082.19;2134268;27;20062;-77
2022/11/30 01:01:43;;;;;;;4.60;3.20;;;;;;;2.95;100.00;93079.19;2140056;27;20112;-77
2022/11/30 01:02:44;;;;;;;4.60;3.28;;;;;;;2.94;100.00;93084.81;2122381;27;20039;-76
2022/11/30 01:03:45;;;;;;;5.15;3.60;;;;;;;2.89;100.00;93083.28;2122192;27;20062;-76
2022/11/30 01:04:46;;;;;;;4.80;3.97;;;;;;;2.92;100.00;93077.28;2125587;27;20027;-76
2022/11/30 01:05:47;;;;;;;4.40;4.00;;;;;;;2.85;100.00;93073.81;2122206;27;20027;-76
2022/11/30 01:06:48;;;;;;;4.10;3.70;;;;;;;2.86;100.00;93085.91;2131443;27;20031;-76
2022/11/30 01:07:49;;;;;;;5.15;4.43;;;;;;;2.90;100.00;93076.91;2131535;27;20129;-77
2022/11/30 01:08:50;;;;;;;5.30;4.38;;;;;;;2.98;100.00;93078.44;2131329;27;20034;-78
2022/11/30 01:09:51;;;;;;;5.15;4.65;;;;;;;2.92;100.00;93077.28;2134288;27;20030;-76
2022/11/30 01:10:56;;;;;;;4.93;4.43;;;;;;;2.93;100.00;93080.66;2139904;27;20026;-77
2022/11/30 01:11:57;;;;;;;5.30;4.57;;;;;;;2.90;100.00;93081.41;2139934;27;20034;-76
2022/11/30 01:12:58;;;;;;;6.88;4.95;;;;;;;2.89;100.00;93082.53;2140295;27;20034;-76
2022/11/30 01:13:59;;;;;;;5.55;4.90;;;;;;;2.91;100.00;93075.00;2140304;27;20058;-77
2022/11/30 01:15:00;;;;;;;4.90;4.50;;;;;;;2.88;100.00;93081.78;2136720;27;20376;-77
2022/11/30 01:16:07;;;;;;;6.70;4.95;;;;;;;2.83;100.00;93073.44;2130081;27;20115;-77
2022/11/30 01:17:08;;;;;;;5.00;4.50;;;;;;;2.82;100.00;93082.50;2122809;27;20503;-78
2022/11/30 01:18:10;;;;;;;5.47;4.88;;;;;;;2.79;100.00;93078.69;2131734;27;20042;-77
2022/11/30 01:19:11;;;;;;;5.55;5.05;;;;;;;2.81;100.00;93081.75;2132628;27;20045;-76
2022/11/30 01:20:12;;;;;;;5.20;4.70;;;;;;;2.82;100.00;93082.50;2127792;27;20364;-76
2022/11/30 01:21:16;;;;;;;6.07;3.90;;;;;;;2.84;100.00;93081.00;2122456;27;20026;-77
2022/11/30 01:22:17;;;;;;;4.95;4.22;;;;;;;2.88;100.00;93071.22;2122831;27;20572;-78
2022/11/30 01:23:18;;;;;;;4.68;3.92;;;;;;;2.85;100.00;93081.75;2122146;27;20045;-77
2022/11/30 01:24:19;;;;;;;5.05;4.10;;;;;;;2.89;100.00;93077.25;2122593;27;20111;-78
2022/11/30 01:25:20;;;;;;;4.60;3.95;;;;;;;2.79;100.00;93078.69;2121884;27;20023;-77
2022/11/30 01:26:22;;;;;;;5.05;4.53;;;;;;;2.82;100.00;93070.06;2122060;27;20027;-78
2022/11/30 01:27:23;;;;;;;5.35;4.57;;;;;;;2.84;100.00;93083.63;2122300;27;20761;-78
2022/11/30 01:28:24;;;;;;;4.97;4.47;;;;;;;2.81;100.00;93076.47;2122190;27;20031;-76
2022/11/30 01:29:25;;;;;;;7.88;4.90;;;;;;;2.81;100.00;93076.47;2122133;27;20035;-78
2022/11/30 01:30:26;;;;;;;5.60;4.80;;;;;;;2.90;100.00;93078.78;2123117;27;20031;-77
2022/11/30 01:31:26;;;;;;;5.28;4.40;;;;;;;2.86;100.00;93070.09;2131396;27;20062;-77
2022/11/30 01:32:29;;;;;;;4.72;4.15;;;;;;;2.80;100.00;93082.09;2131332;27;20532;-77
2022/11/30 01:33:33;;;;;;;4.38;3.97;;;;;;;2.74;100.00;93074.53;2130822;27;20064;-77
2022/11/30 01:34:34;;;;;;;4.88;4.10;;;;;;;2.81;100.00;93080.97;2130720;27;20110;-77
2022/11/30 01:35:34;;;;;;;5.80;4.20;;;;;;;2.73;100.00;93074.91;2130283;27;20444;-77
2022/11/30 01:36:37;;;;;;;6.25;4.00;;;;;;;2.80;100.00;93074.94;2125339;27;20456;-77
2022/11/30 01:37:39;;;;;;;5.28;4.20;;;;;;;2.76;100.00;93074.91;2122442;27;20034;-78
2022/11/30 01:38:43;;;;;;;5.18;4.50;;;;;;;2.78;100.00;93085.09;2122124;27;20038;-76
2022/11/30 01:39:44;;;;;;;4.85;3.92;;;;;;;2.76;100.00;93080.16;2122059;27;20083;-77
2022/11/30 01:40:51;;;;;;;4.50;4.15;;;;;;;2.80;100.00;93077.56;2124911;27;20026;-77
2022/11/30 01:41:54;;;;;;;5.00;3.58;;;;;;;2.79;100.00;93081.34;2122191;27;20107;-77
2022/11/30 01:42:55;;;;;;;5.00;4.60;;;;;;;2.82;100.00;93082.50;2113465;28;20094;-77
2022/11/30 01:44:16;;;;;;;5.38;4.70;;;;;;;2.82;100.00;93079.84;2096572;28;20059;-76
2022/11/30 01:45:17;;;;;;;5.28;4.80;;;;;;;2.82;100.00;93077.22;2116414;27;20119;-76
2022/11/30 01:46:24;;;;;;;5.22;4.72;;;;;;;2.87;100.00;93082.91;2125570;27;20018;-76
2022/11/30 01:47:42;;;;;;;5.25;4.50;;;;;;;2.83;100.00;93073.44;2126863;27;20038;-76
2022/11/30 01:48:43;;;;;;;4.32;3.92;;;;;;;2.80;100.00;93077.56;2130678;27;20038;-77
2022/11/30 01:49:52;;;;;;;4.47;4.07;;;;;;;2.79;100.00;93076.06;2130771;27;20034;-76
2022/11/30 01:50:55;;;;;;;5.57;4.53;;;;;;;2.84;100.00;93080.22;2123852;27;20030;-78
2022/11/30 01:52:12;;;;;;;4.88;4.25;;;;;;;2.87;100.00;93080.25;2129286;27;20030;-79
2022/11/30 01:53:13;;;;;;;6.00;4.93;;;;;;;2.87;100.00;93076.88;2131657;27;20061;-76
2022/11/30 01:54:17;;;;;;;4.88;4.45;;;;;;;2.91;100.00;93085.56;2130744;27;20027;-76
2022/11/30 01:55:24;;;;;;;4.93;4.43;;;;;;;2.88;100.00;93081.78;2129169;27;20114;-76
2022/11/30 01:56:25;;;;;;;6.40;4.80;;;;;;;2.89;100.00;93091.19;2121908;27;20030;-76
2022/11/30 01:57:35;;;;;;;8.18;4.80;;;;;;;2.87;100.00;93088.19;2122122;27;20044;-76
2022/11/30 01:58:36;;;;;;;;;;;;;;;2.87;100.00;93085.53;2122775;27;20052;-79
2022/11/30 01:59:37;;;;;;;5.38;4.13;;;;;;;2.86;100.00;93088.56;2121441;27;20000;-76
2022/11/30 02:00:44;;;;;;;4.72;4.18;;;;;;;2.85;100.00;93087.03;2122202;27;20459;-76
2022/11/30 02:01:46;;;;;;;6.43;4.18;;;;;;;2.91;100.00;93088.97;2122038;27;20358;-77
2022/11/30 02:03:01;;;;;;;5.50;4.88;;;;;;;2.90;100.00;93082.19;2122414;27;20051;-76
2022/11/30 02:04:11;;;;;;;5.10;4.60;;;;;;;2.89;100.00;93085.16;2122577;27;20057;-77
2022/11/30 02:05:13;;;;;;;4.68;4.22;;;;;;;2.88;100.00;93089.69;2123526;27;20064;-77
2022/11/30 02:06:14;;;;;;;4.65;4.25;;;;;;;2.88;100.00;93092.31;2128392;27;20106;-77
2022/11/30 02:07:15;;;;;;;6.07;4.45;;;;;;;2.88;100.00;93089.69;2121326;27;20031;-78
2022/11/30 02:08:17;;;;;;;5.72;4.68;;;;;;;2.87;100.00;93082.91;2121477;27;20020;-76
2022/11/30 02:09:20;;;;;;;4.90;4.35;;;;;;;2.89;100.00;93090.44;2121646;27;20023;-76
2022/11/30 02:10:25;;;;;;;5.93;4.38;;;;;;;2.92;100.00;93085.19;2121698;27;20034;-77
2022/11/30 02:11:28;;;;;;;5.00;4.35;;;;;;;2.86;100.00;93089.31;2121805;27;20026;-76
2022/11/30 02:12:28;;;;;;;5.95;4.53;;;;;;;2.86;100.00;93091.94;2123710;27;20496;-76
2022/11/30 02:14:00;;;;;;;4.28;3.90;;;;;;;2.88;100.00;93088.94;2130925;27;20031;-76
2022/11/30 02:15:10;;;;;;;5.63;4.32;;;;;;;2.90;100.00;93091.97;2130871;27;20045;-77
2022/11/30 02:16:34;;;;;;;5.97;4.28;;;;;;;2.82;100.00;93085.13;2130935;27;20110;-78
2022/11/30 02:17:50;;;;;;;4.93;4.38;;;;;;;2.86;100.00;93091.94;2127201;27;20038;-78
2022/11/30 02:18:57;;;;;;;5.35;4.28;;;;;;;2.90;100.00;93081.41;2121494;27;20094;-78
2022/11/30 02:20:25;;;;;;;5.75;5.07;;;;;;;2.90;100.00;93082.19;2122543;27;20042;-78
2022/11/30 02:21:47;;;;;;;5.55;4.55;;;;;;;2.88;100.00;93084.41;2113302;28;20020;-77
2022/11/30 02:23:06;;;;;;;9.70;4.65;;;;;;;2.80;100.00;93090.75;2117871;27;20041;-77
2022/11/30 02:24:29;;;;;;;4.63;4.22;;;;;;;2.85;100.00;93084.38;2130407;27;20030;-77
2022/11/30 02:25:48;;;;;;;5.07;4.57;;;;;;;2.82;100.00;93093.81;2128594;27;20031;-78
2022/11/30 02:27:07;;;;;;;5.22;4.70;;;;;;;2.78;100.00;93091.13;2122552;27;20055;-76
2022/11/30 02:28:26;;;;;;;5.20;4.55;;;;;;;2.84;100.00;93090.78;2121994;27;20037;-76
2022/11/30 02:29:48;;;;;;;6.35;4.28;;;;;;;2.84;100.00;93096.81;2120823;28;20494;-77
2022/11/30 02:30:58;;;;;;;4.35;3.95;;;;;;;2.83;100.00;93086.66;2121276;28;20393;-77
2022/11/30 02:32:20;;;;;;;5.00;4.60;;;;;;;2.82;100.00;93088.53;2122321;27;20035;-77
2022/11/30 02:33:26;;;;;;;5.85;4.93;;;;;;;2.88;100.00;93089.69;2121546;28;20110;-77
2022/11/30 02:34:30;;;;;;;5.30;4.50;;;;;;;2.85;100.00;93089.66;2129874;27;20033;-77
2022/11/30 02:35:35;;;;;;;5.68;5.18;;;;;;;2.88;100.00;93089.69;2130394;27;20039;-78
2022/11/30 02:36:36;;;;;;;5.45;4.97;;;;;;;2.87;100.00;93088.19;2124832;27;20402;-78
2022/11/30 02:37:38;;;;;;;5.55;5.00;;;;;;;2.84;100.00;93082.88;2122377;27;20023;-78
2022/11/30 02:38:40;;;;;;;5.20;4.70;;;;;;;2.86;100.00;93080.63;2122150;27;20071;-77
2022/11/30 02:39:42;;;;;;;5.60;5.07;;;;;;;2.85;100.00;93079.84;2121622;27;20031;-78
2022/11/30 02:40:43;;;;;;;5.53;4.90;;;;;;;2.85;100.00;93089.66;2121750;28;20023;-79
2022/11/30 02:41:44;;;;;;;5.10;4.60;;;;;;;2.84;100.00;93088.91;2121913;27;20023;-76
2022/11/30 02:42:48;;;;;;;6.18;5.57;;;;;;;2.86;100.00;93083.28;2122016;28;20038;-77
2022/11/30 02:43:50;;;;;;;8.90;5.13;;;;;;;2.85;100.00;93087.03;2122210;27;20034;-76
2022/11/30 02:44:52;;;;;;;5.90;5.30;;;;;;;2.92;100.00;93087.84;2125654;27;20079;-76
2022/11/30 02:46:15;;;;;;;7.20;5.13;;;;;;;2.85;100.00;93087.78;2130933;27;20018;-76
2022/11/30 02:47:25;;;;;;;5.25;4.70;;;;;;;2.88;100.00;93087.06;2130853;27;20094;-77
2022/11/30 02:48:48;;;;;;;6.18;5.10;;;;;;;2.90;100.00;93090.09;2130308;27;20038;-77
2022/11/30 02:50:00;;;;;;;7.78;5.63;;;;;;;2.90;100.00;93092.72;2129960;27;20039;-77
2022/11/30 02:51:05;;;;;;;6.07;5.43;;;;;;;2.91;100.00;93082.94;2130754;27;20113;-77
2022/11/30 02:52:09;;;;;;;6.43;5.82;;;;;;;2.89;100.00;93080.63;2130355;27;20100;-77
2022/11/30 02:53:10;;;;;;;7.20;5.57;;;;;;;2.89;100.00;93080.63;2122065;27;20035;-76
2022/11/30 02:54:11;;;;;;;7.10;5.40;;;;;;;2.86;100.00;93081.41;2130004;27;20023;-76
2022/11/30 02:55:16;;;;;;;5.97;5.40;;;;;;;2.96;100.00;93085.97;2125906;27;20097;-76
2022/11/30 02:56:18;;;;;;;6.75;5.30;;;;;;;2.96;100.00;93085.22;2121463;28;20034;-76
2022/11/30 02:57:19;;;;;;;7.35;6.07;;;;;;;2.92;100.00;93085.19;2122282;27;20066;-76
2022/11/30 02:58:21;;;;;;;6.63;5.68;;;;;;;2.94;100.00;93082.19;2122350;28;20027;-76
2022/11/30 02:59:22;;;;;;;8.63;5.57;;;;;;;2.93;100.00;93081.41;2121848;27;20042;-77
2022/11/30 03:00:23;;;;;;;6.32;5.60;;;;;;;2.90;100.00;93076.13;2124922;27;20520;-77
2022/11/30 03:01:24;;;;;;;6.20;5.40;;;;;;;2.91;100.00;93085.56;2130318;27;20027;-78
2022/11/30 03:02:25;;;;;;;6.47;5.07;;;;;;;2.86;100.00;93078.00;2130673;27;20023;-78
2022/11/30 03:03:26;;;;;;;5.93;5.00;;;;;;;2.87;100.00;93085.53;2130896;27;20038;-78
2022/11/30 03:04:27;;;;;;;6.13;5.55;;;;;;;2.85;100.00;93081.75;2129808;27;20054;-79
2022/11/30 03:05:28;;;;;;;7.93;5.78;;;;;;;2.87;100.00;93082.91;2120259;28;20031;-77
2022/11/30 03:06:29;;;;;;;6.22;5.28;;;;;;;2.85;100.00;93079.09;2118893;27;20027;-77
2022/11/30 03:07:30;;;;;;;7.28;5.45;;;;;;;2.88;100.00;93083.66;2130830;27;20023;-78
2022/11/30 03:08:31;;;;;;;5.93;5.15;;;;;;;2.93;100.00;93080.66;2121765;28;20031;-77
2022/11/30 03:09:32;;;;;;;6.13;5.38;;;;;;;2.90;100.00;93079.53;2121749;27;20076;-79
2022/11/30 03:10:33;;;;;;;7.38;5.90;;;;;;;2.91;100.00;93081.03;2121545;28;20027;-79
2022/11/30 03:11:34;;;;;;;6.28;5.68;;;;;;;2.91;100.00;93088.22;2113113;28;20059;-77
2022/11/30 03:12:36;;;;;;;6.90;5.38;;;;;;;2.85;100.00;93087.78;2121394;28;20034;-78
2022/11/30 03:13:37;;;;;;;7.72;6.00;;;;;;;2.93;100.00;93083.31;2121900;27;20055;-76
2022/11/30 03:14:38;;;;;;;8.80;6.25;;;;;;;2.89;100.00;93083.28;2121715;28;20019;-77
2022/11/30 03:15:38;;;;;;;7.70;5.70;;;;;;;2.85;100.00;93087.03;2121753;27;20110;-78
2022/11/30 03:16:40;;;;;;;6.80;6.00;;;;;;;2.86;100.00;93091.19;2132459;27;20030;-77
2022/11/30 03:17:40;;;;;;;9.43;6.28;;;;;;;2.87;100.00;93084.78;2139238;27;20431;-77
2022/11/30 03:18:42;;;;;;;7.82;6.32;;;;;;;2.82;100.00;93088.53;2138802;27;20059;-76
2022/11/30 03:19:43;;;;;;;7.75;6.68;;;;;;;2.81;100.00;93092.31;2138717;27;20449;-76
2022/11/30 03:20:44;;;;;;;8.95;7.20;;;;;;;2.86;100.00;93086.66;2140787;27;20025;-76
2022/11/30 03:21:45;;;;;;;7.78;7.07;;;;;;;2.86;100.00;93091.94;2132654;27;20086;-76
2022/11/30 03:22:46;;;;;;;10.60;7.03;;;;;;;2.85;100.00;93090.41;2132257;27;20364;-76
2022/11/30 03:23:46;;;;;;;11.35;7.20;;;;;;;2.84;100.00;93088.91;2132384;27;20027;-77
2022/11/30 03:24:47;;;;;;;9.57;7.00;;;;;;;2.82;100.00;93090.41;2131776;27;20033;-76
2022/11/30 03:25:48;;;;;;;11.15;6.68;;;;;;;2.76;100.00;93093.38;2132119;27;20105;-76
2022/11/30 03:26:49;;;;;;;7.75;7.03;;;;;;;2.80;100.00;93090.75;2139022;27;20386;-76
2022/11/30 03:27:50;;;;;;;9.25;7.40;;;;;;;2.78;100.00;93091.13;2131525;27;20061;-76
2022/11/30 03:28:51;;;;;;;8.32;6.45;;;;;;;2.82;100.00;93095.69;2131411;27;20069;-77
2022/11/30 03:29:52;;;;;;;9.20;6.50;;;;;;;2.76;100.00;93096.00;2140687;27;20022;-77
2022/11/30 03:30:54;;;;;;;10.15;6.97;;;;;;;2.72;100.00;93086.56;2140463;27;20030;-77
2022/11/30 03:31:54;;;;;;;10.65;7.20;;;;;;;2.76;100.00;93087.34;2139893;27;20770;-77
2022/11/30 03:32:55;;;;;;;8.88;6.38;;;;;;;2.77;100.00;93094.91;2140963;27;20030;-76
2022/11/30 03:33:56;;;;;;;8.63;6.68;;;;;;;2.74;100.00;93086.97;2141009;27;20501;-77
2022/11/30 03:34:57;;;;;;;7.70;6.85;;;;;;;2.75;100.00;93081.31;2140679;27;20452;-77
2022/11/30 03:36:06;;;;;;;8.63;6.97;;;;;;;2.78;100.00;93093.03;2140132;27;20478;-78
2022/11/30 03:37:07;;;;;;;8.77;7.28;;;;;;;2.82;100.00;93095.69;2135370;27;20030;-77
2022/11/30 03:38:08;;;;;;;8.98;7.85;;;;;;;2.82;100.00;93096.44;2141021;27;20118;-76
2022/11/30 03:39:09;;;;;;;9.07;7.60;;;;;;;2.80;100.00;93095.28;2140892;27;20038;-76
2022/11/30 03:40:11;;;;;;;9.35;8.27;;;;;;;2.86;100.00;93083.28;2131897;27;20023;-77
2022/11/30 03:41:15;;;;;;;8.38;7.13;;;;;;;2.89;100.00;93095.72;2124188;27;20039;-77
2022/11/30 03:42:16;;;;;;;12.05;7.47;;;;;;;2.85;100.00;93089.66;2109115;28;20416;-77
2022/11/30 03:43:17;;;;;;;8.85;7.30;;;;;;;2.83;100.00;93091.91;2116090;27;20108;-77
2022/11/30 03:44:18;;;;;;;9.65;8.00;;;;;;;2.87;100.00;93087.44;2132506;27;20035;-77
2022/11/30 03:45:19;;;;;;;10.13;8.13;;;;;;;2.85;100.00;93092.31;2132419;27;20030;-77
2022/11/30 03:46:20;;;;;;;10.93;8.73;;;;;;;2.89;100.00;93093.09;2132516;27;20497;-78
2022/11/30 03:47:21;;;;;;;10.65;8.55;;;;;;;2.89;100.00;93088.56;2135544;27;20037;-78
2022/11/30 03:48:24;;;;;;;9.80;8.07;;;;;;;2.88;100.00;93087.06;2132153;27;20442;-77
2022/11/30 03:49:24;;;;;;;9.93;8.35;;;;;;;2.87;100.00;93092.72;2131481;27;20353;-77
2022/11/30 03:50:25;;;;;;;12.50;8.77;;;;;;;2.85;100.00;93094.94;2132696;27;20049;-77
2022/11/30 03:51:26;;;;;;;9.45;7.85;;;;;;;2.85;100.00;93089.66;2140832;27;20014;-76
2022/11/30 03:52:28;;;;;;;9.48;8.15;;;;;;;2.79;100.00;93089.25;2125127;27;20035;-76
2022/11/30 03:53:30;;;;;;;10.45;8.30;;;;;;;2.80;100.00;93092.66;2123019;27;20499;-77
2022/11/30 03:54:30;;;;;;;11.48;8.35;;;;;;;2.82;100.00;93093.81;2132140;27;20026;-77
2022/11/30 03:55:31;;;;;;;7.72;6.45;;;;;;;2.80;100.00;93098.69;2127130;27;20075;-76
2022/11/30 03:56:32;;;;;;;7.70;6.85;;;;;;;2.77;100.00;93092.28;2125422;27;20049;-77
2022/11/30 03:57:33;;;;;;;9.05;7.35;;;;;;;2.80;100.00;93092.66;2136014;27;20026;-77
2022/11/30 03:58:34;;;;;;;9.07;7.45;;;;;;;2.85;100.00;93094.94;2140604;27;20135;-78
2022/11/30 03:59:35;;;;;;;8.38;7.47;;;;;;;2.87;100.00;93098.75;2140500;27;20037;-77
2022/11/30 04:00:37;;;;;;;9.27;7.90;;;;;;;2.88;100.00;93104.78;2140598;27;20062;-76
2022/11/30 04:01:39;;;;;;;10.70;7.82;;;;;;;2.84;100.00;93094.19;2131332;27;20105;-77
2022/11/30 04:02:40;;;;;;;10.80;8.00;;;;;;;2.83;100.00;93091.91;2131403;27;20617;-76
2022/11/30 04:03:42;;;;;;;7.85;7.05;;;;;;;2.77;100.00;93094.16;2131021;27;20129;-78
2022/11/30 04:04:43;;;;;;;7.63;6.82;;;;;;;2.78;100.00;93098.31;2122815;27;20019;-78
2022/11/30 04:05:46;;;;;;;8.38;7.25;;;;;;;2.75;100.00;93094.50;2127282;27;20019;-77
2022/11/30 04:06:47;;;;;;;9.35;7.55;;;;;;;2.76;100.00;93095.25;2131881;27;20435;-77
2022/11/30 04:07:47;;;;;;;9.57;7.35;;;;;;;2.78;100.00;93095.66;2132292;27;20022;-77
2022/11/30 04:08:48;;;;;;;8.95;7.00;;;;;;;2.76;100.00;93092.63;2139826;27;20475;-77
2022/11/30 04:09:49;;;;;;;9.70;7.40;;;;;;;2.73;100.00;93094.13;2131070;27;20101;-78
2022/11/30 04:10:52;;;;;;;7.82;6.90;;;;;;;2.79;100.00;93089.25;2122619;27;20034;-77
2022/11/30 04:11:53;;;;;;;10.85;7.18;;;;;;;2.80;100.00;93097.94;2130571;27;20365;-77
2022/11/30 04:12:54;;;;;;;10.35;6.97;;;;;;;2.78;100.00;93100.94;2140535;27;20025;-77
2022/11/30 04:13:55;;;;;;;6.80;6.00;;;;;;;2.95;100.00;93097.66;2135371;27;20025;-77
2022/11/30 04:14:56;;;;;;;7.10;6.03;;;;;;;2.93;100.00;93093.88;2122219;27;20030;-77
2022/11/30 04:15:57;;;;;;;7.25;6.22;;;;;;;2.85;100.00;93095.69;2113782;28;20450;-77
2022/11/30 04:16:58;;;;;;;8.20;6.70;;;;;;;2.80;100.00;93093.41;2124182;27;20438;-77
2022/11/30 04:17:59;;;;;;;8.65;6.63;;;;;;;2.80;100.00;93093.41;2133735;27;20026;-76
2022/11/30 04:19:01;;;;;;;8.43;6.90;;;;;;;2.75;100.00;93094.50;2135678;27;20117;-77
2022/11/30 04:20:03;;;;;;;8.95;6.22;;;;;;;2.73;100.00;93099.41;2131470;27;20029;-78
2022/11/30 04:21:05;;;;;;;8.32;6.90;;;;;;;2.74;100.00;93092.25;2131713;27;20121;-77
2022/11/30 04:22:06;;;;;;;8.25;6.95;;;;;;;2.72;100.00;93099.75;2140384;27;20833;-77
2022/11/30 04:23:09;;;;;;;9.70;6.93;;;;;;;2.71;100.00;93093.72;2140267;27;20115;-77
2022/11/30 04:24:10;;;;;;;7.63;6.45;;;;;;;2.71;100.00;93087.69;2136614;27;20030;-77
2022/11/30 04:25:11;;;;;;;8.48;7.07;;;;;;;2.76;100.00;93098.66;2115332;27;20137;-76
2022/11/30 04:26:14;;;;;;;8.98;7.20;;;;;;;2.70;100.00;93097.47;2122753;27;20068;-76
2022/11/30 04:27:15;;;;;;;7.03;6.32;;;;;;;2.71;100.00;93092.97;2140256;27;20117;-78
2022/11/30 04:28:17;;;;;;;7.40;6.60;;;;;;;2.71;100.00;93090.31;2139991;27;20041;-78
2022/11/30 04:29:17;;;;;;;8.25;6.80;;;;;;;2.73;100.00;93096.75;2136766;27;20115;-76
2022/11/30 04:30:19;;;;;;;9.07;7.10;;;;;;;2.69;100.00;93093.34;2130916;27;20143;-78
2022/11/30 04:31:19;;;;;;;8.65;6.90;;;;;;;2.69;100.00;93087.31;2131300;27;20030;-76
2022/11/30 04:32:20;;;;;;;8.63;7.70;;;;;;;2.70;100.00;93086.19;2122392;27;20050;-77
2022/11/30 04:33:21;;;;;;;7.90;7.10;;;;;;;2.70;100.00;93086.19;2122489;27;20015;-76
2022/11/30 04:34:23;;;;;;;7.78;6.97;;;;;;;2.72;100.00;93089.97;2132045;27;20023;-76
2022/11/30 04:35:24;;;;;;;9.40;7.20;;;;;;;2.70;100.00;93092.22;2139897;27;20057;-76
2022/11/30 04:36:25;;;;;;;9.73;7.22;;;;;;;2.73;100.00;93088.84;2136311;27;20129;-76
2022/11/30 04:37:25;;;;;;;8.23;7.40;;;;;;;2.75;100.00;93086.59;2121587;27;20039;-77
2022/11/30 04:38:27;;;;;;;9.23;7.30;;;;;;;2.73;100.00;93088.84;2122674;27;20072;-78
2022/11/30 04:39:28;;;;;;;8.48;7.38;;;;;;;2.77;100.00;93086.25;2131448;27;20032;-77
2022/11/30 04:40:29;;;;;;;9.68;7.75;;;;;;;2.77;100.00;93080.97;2131454;27;20037;-76
2022/11/30 04:41:30;;;;;;;8.57;7.47;;;;;;;2.85;100.00;93085.13;2130881;27;20417;-77
2022/11/30 04:42:31;;;;;;;8.00;7.20;;;;;;;2.81;100.00;93084.38;2131420;27;20027;-77
2022/11/30 04:43:32;;;;;;;9.15;7.60;;;;;;;2.77;100.00;93083.59;2131739;27;20058;-77
2022/11/30 04:44:33;;;;;;;7.95;6.82;;;;;;;2.77;100.00;93087.00;2131651;27;20054;-77
2022/11/30 04:45:34;;;;;;;7.80;7.05;;;;;;;2.77;100.00;93087.00;2122333;27;20022;-77
2022/11/30 04:46:36;;;;;;;9.30;6.60;;;;;;;2.83;100.00;93089.28;2122531;27;20027;-78
2022/11/30 04:47:37;;;;;;;7.28;6.32;;;;;;;2.78;100.00;93093.78;2131625;27;20038;-78
2022/11/30 04:48:38;;;;;;;6.70;5.82;;;;;;;2.80;100.00;93090.75;2131134;27;20026;-79
2022/11/30 04:49:39;;;;;;;6.85;5.93;;;;;;;2.76;100.00;93095.25;2131102;27;20087;-77
2022/11/30 04:50:40;;;;;;;7.22;6.45;;;;;;;2.80;100.00;93088.13;2131353;27;20418;-77
2022/11/30 04:51:41;;;;;;;7.38;6.35;;;;;;;2.83;100.00;93086.66;2122234;27;20027;-76
2022/11/30 04:52:42;;;;;;;7.53;6.68;;;;;;;2.83;100.00;93091.91;2113995;28;20019;-76
2022/11/30 04:53:43;;;;;;;6.60;6.00;;;;;;;2.78;100.00;93099.06;2121824;27;20058;-77
2022/11/30 04:54:44;;;;;;;6.65;5.93;;;;;;;2.90;100.00;93092.72;2131241;27;20030;-76
2022/11/30 04:55:45;;;;;;;7.38;6.38;;;;;;;2.95;100.00;93094.28;2136377;27;20026;-76